createdAt,value
2022-09-11T00:01:59.598Z,1.63
2022-09-11T00:04:35.032Z,1.30
2022-09-11T00:07:12.339Z,1.50
2022-09-11T00:09:40.223Z,1.30
2022-09-11T00:12:10.033Z,1.77
2022-09-11T00:14:38.079Z,1.60
2022-09-11T00:17:06.550Z,1.40
2022-09-11T00:19:36.919Z,1.55
2022-09-11T00:22:10.851Z,1.33
2022-09-11T00:24:46.891Z,1.27
2022-09-11T00:27:20.729Z,1.45
2022-09-11T00:29:57.617Z,1.55
2022-09-11T00:32:25.903Z,1.55
2022-09-11T00:35:02.916Z,1.33
2022-09-11T00:37:43.238Z,1.30
2022-09-11T00:40:11.441Z,1.17
2022-09-11T00:42:59.542Z,1.20
2022-09-11T00:45:47.387Z,1.20
2022-09-11T00:48:26.222Z,1.60
2022-09-11T00:51:06.677Z,1.00
2022-09-11T00:53:36.704Z,1.08
2022-09-11T00:56:09.796Z,1.45
2022-09-11T00:58:40.703Z,1.00
2022-09-11T01:01:19.668Z,0.82
2022-09-11T01:03:49.798Z,1.05
2022-09-11T01:06:18.130Z,1.08
2022-09-11T01:08:48.174Z,0.73
2022-09-11T01:11:36.950Z,0.90
2022-09-11T01:14:42.337Z,1.10
2022-09-11T01:17:33.538Z,1.00
2022-09-11T01:20:26.397Z,1.13
2022-09-11T01:23:24.620Z,1.20
2022-09-11T01:26:17.664Z,0.98
2022-09-11T01:29:11.731Z,1.60
2022-09-11T01:32:00.016Z,1.15
2022-09-11T01:34:30.930Z,1.00
2022-09-11T01:37:04.710Z,1.08
2022-09-11T01:39:35.769Z,1.00
2022-09-11T01:42:24.584Z,1.00
2022-09-11T01:45:01.418Z,1.65
2022-09-11T01:47:48.501Z,1.27
2022-09-11T01:50:19.996Z,1.00
2022-09-11T01:55:33.626Z,1.20
2022-09-11T01:58:08.092Z,0.93
2022-09-11T02:00:41.197Z,1.00
2022-09-11T02:03:15.805Z,1.00
2022-09-11T02:05:47.338Z,1.20
2022-09-11T02:08:19.407Z,1.00
2022-09-11T02:10:55.914Z,2.17
2022-09-11T02:13:35.851Z,1.08
2022-09-11T02:16:44.550Z,1.00
2022-09-11T02:19:14.856Z,1.17
2022-09-11T02:21:45.017Z,1.13
2022-09-11T02:24:21.021Z,1.00
2022-09-11T02:26:55.029Z,1.00
2022-09-11T02:29:27.842Z,1.10
2022-09-11T02:32:20.156Z,1.10
2022-09-11T02:34:49.874Z,1.00
2022-09-11T02:37:28.134Z,0.98
2022-09-11T02:40:15.964Z,0.90
2022-09-11T02:42:48.079Z,1.00
2022-09-11T02:45:44.670Z,1.10
2022-09-11T02:51:30.486Z,1.10
2022-09-11T02:53:59.348Z,1.00
2022-09-11T02:56:56.265Z,1.25
2022-09-11T02:59:39.434Z,0.98
2022-09-11T03:02:11.145Z,1.00
2022-09-11T03:04:39.601Z,1.33
2022-09-11T03:07:11.749Z,1.25
2022-09-11T03:10:02.295Z,1.13
2022-09-11T03:12:37.822Z,0.73
2022-09-11T03:15:47.000Z,1.10
2022-09-11T03:18:26.055Z,0.90
2022-09-11T03:21:00.304Z,1.20
2022-09-11T03:23:47.542Z,1.00
2022-09-11T03:26:28.737Z,0.80
2022-09-11T03:29:01.964Z,1.13
2022-09-11T03:31:49.990Z,1.27
2022-09-11T03:34:33.443Z,1.05
2022-09-11T03:37:09.884Z,0.90
2022-09-11T03:39:37.847Z,1.00
2022-09-11T03:42:07.799Z,1.20
2022-09-11T03:44:38.892Z,1.00
2022-09-11T03:47:08.954Z,0.90
2022-09-11T03:52:52.398Z,0.90
2022-09-11T03:55:47.345Z,0.73
2022-09-11T03:58:32.568Z,0.77
2022-09-11T04:01:01.367Z,1.25
2022-09-11T04:03:37.330Z,1.23
2022-09-11T04:06:16.709Z,0.70
2022-09-11T04:08:47.620Z,1.02
2022-09-11T04:11:30.933Z,1.05
2022-09-11T04:14:14.836Z,0.90
2022-09-11T04:16:51.257Z,0.73
2022-09-11T04:19:38.493Z,0.88
2022-09-11T04:22:12.008Z,1.02
2022-09-11T04:24:41.322Z,1.00
2022-09-11T04:27:10.164Z,1.08
2022-09-11T04:29:40.268Z,1.10
2022-09-11T04:32:14.736Z,1.10
2022-09-11T04:34:56.742Z,1.17
2022-09-11T04:37:29.590Z,1.02
2022-09-11T04:39:58.769Z,1.20
2022-09-11T04:42:28.426Z,1.00
2022-09-11T04:45:25.947Z,1.00
2022-09-11T04:47:57.214Z,0.88
2022-09-11T04:50:38.544Z,0.90
2022-09-11T04:53:14.814Z,0.90
2022-09-11T04:55:43.098Z,1.15
2022-09-11T04:58:21.392Z,0.80
2022-09-11T05:00:49.598Z,0.88
2022-09-11T05:03:37.697Z,1.15
2022-09-11T05:06:25.029Z,0.80
2022-09-11T05:08:55.913Z,1.20
2022-09-11T05:11:24.185Z,1.10
2022-09-11T05:14:02.502Z,0.95
2022-09-11T05:17:06.758Z,1.40
2022-09-11T05:19:53.928Z,1.00
2022-09-11T05:22:40.338Z,1.40
2022-09-11T05:25:11.675Z,1.13
2022-09-11T05:27:41.523Z,1.55
2022-09-11T05:30:36.168Z,1.23
2022-09-11T05:33:27.983Z,1.13
2022-09-11T05:35:56.484Z,0.95
2022-09-11T05:38:24.494Z,1.40
2022-09-11T05:40:53.504Z,1.20
2022-09-11T05:43:38.524Z,1.00
2022-09-11T05:46:21.643Z,1.08
2022-09-11T05:48:52.806Z,1.48
2022-09-11T05:51:39.310Z,1.33
2022-09-11T05:54:07.490Z,1.23
2022-09-11T05:56:36.306Z,0.85
2022-09-11T05:59:05.182Z,1.17
2022-09-11T06:01:54.966Z,1.00
2022-09-11T06:04:31.248Z,1.27
2022-09-11T06:07:03.188Z,1.00
2022-09-11T06:09:34.118Z,1.27
2022-09-11T06:12:03.982Z,1.45
2022-09-11T06:14:34.126Z,1.13
2022-09-11T06:17:07.743Z,1.10
2022-09-11T06:19:38.762Z,1.20
2022-09-11T06:22:06.703Z,1.20
2022-09-11T06:24:50.982Z,0.90
2022-09-11T06:27:20.319Z,1.10
2022-09-11T06:30:31.921Z,1.10
2022-09-11T06:33:21.852Z,1.17
2022-09-11T06:36:14.596Z,1.20
2022-09-11T06:38:48.673Z,1.20
2022-09-11T06:41:35.256Z,1.10
2022-09-11T06:44:34.886Z,1.20
2022-09-11T06:47:06.986Z,1.48
2022-09-11T06:49:37.085Z,1.25
2022-09-11T06:52:04.798Z,1.38
2022-09-11T06:54:32.612Z,1.15
2022-09-11T06:57:16.646Z,1.08
2022-09-11T06:59:50.242Z,1.23
2022-09-11T07:02:27.206Z,1.10
2022-09-11T07:04:55.000Z,1.00
2022-09-11T07:07:23.063Z,1.05
2022-09-11T07:10:25.886Z,2.17
2022-09-11T07:13:09.007Z,1.10
2022-09-11T07:15:43.699Z,1.10
2022-09-11T07:18:16.953Z,1.00
2022-09-11T07:20:52.221Z,1.10
2022-09-11T07:23:45.217Z,0.93
2022-09-11T07:26:16.010Z,1.10
2022-09-11T07:28:46.015Z,1.27
2022-09-11T07:31:20.085Z,1.45
2022-09-11T07:34:14.007Z,1.27
2022-09-11T07:36:42.987Z,1.23
2022-09-11T07:39:20.056Z,1.02
2022-09-11T07:41:59.495Z,1.00
2022-09-11T07:44:29.597Z,0.88
2022-09-11T07:47:35.658Z,1.67
2022-09-11T07:50:22.922Z,0.90
2022-09-11T07:52:50.701Z,0.90
2022-09-11T07:55:35.859Z,1.10
2022-09-11T07:58:36.827Z,1.35
2022-09-11T08:01:06.495Z,1.20
2022-09-11T08:03:44.278Z,1.27
2022-09-11T08:06:37.543Z,0.82
2022-09-11T08:09:16.963Z,1.05
2022-09-11T08:11:48.510Z,1.00
2022-09-11T08:14:18.933Z,1.00
2022-09-11T08:16:47.085Z,1.30
2022-09-11T08:19:23.232Z,1.15
2022-09-11T08:21:56.568Z,0.98
2022-09-11T08:24:28.663Z,1.25
2022-09-11T08:27:12.854Z,1.30
2022-09-11T08:29:41.826Z,2.08
2022-09-11T08:32:19.896Z,1.98
2022-09-11T08:35:02.044Z,1.50
2022-09-11T08:37:54.969Z,1.65
2022-09-11T08:40:26.427Z,1.33
2022-09-11T08:43:10.525Z,1.27
2022-09-11T08:45:41.724Z,1.40
2022-09-11T08:48:29.478Z,1.45
2022-09-11T08:51:05.395Z,1.30
2022-09-11T08:53:41.530Z,1.45
2022-09-11T08:56:12.632Z,1.30
2022-09-11T08:58:46.413Z,1.42
2022-09-11T09:01:14.284Z,1.80
2022-09-11T09:04:01.336Z,1.35
2022-09-11T09:06:47.951Z,1.58
2022-09-11T09:09:32.989Z,1.50
2022-09-11T09:12:23.498Z,1.77
2022-09-11T09:14:51.290Z,1.85
2022-09-11T09:17:29.204Z,1.65
2022-09-11T09:20:12.251Z,1.40
2022-09-11T09:22:59.259Z,1.98
2022-09-11T09:25:28.040Z,1.75
2022-09-11T09:28:04.582Z,2.00
2022-09-11T09:30:46.021Z,2.10
2022-09-11T09:35:55.600Z,1.95
2022-09-11T09:38:27.343Z,2.00
2022-09-11T09:41:11.825Z,1.75
2022-09-11T09:43:58.572Z,1.83
2022-09-11T09:46:45.462Z,1.90
2022-09-11T09:49:42.866Z,1.38
2022-09-11T09:52:19.832Z,1.58
2022-09-11T09:54:55.393Z,1.83
2022-09-11T09:57:34.551Z,2.00
2022-09-11T10:00:40.295Z,1.80
2022-09-11T10:03:32.958Z,1.92
2022-09-11T10:06:01.591Z,2.28
2022-09-11T10:08:32.585Z,1.77
2022-09-11T10:11:11.742Z,1.88
2022-09-11T10:13:54.526Z,1.83
2022-09-11T10:16:28.602Z,1.95
2022-09-11T10:18:57.008Z,1.60
2022-09-11T10:21:35.002Z,1.60
2022-09-11T10:24:27.462Z,2.10
2022-09-11T10:27:19.761Z,1.75
2022-09-11T10:29:56.309Z,1.98
2022-09-11T10:32:37.465Z,1.92
2022-09-11T10:35:18.280Z,2.13
2022-09-11T10:38:10.044Z,1.90
2022-09-11T10:43:33.321Z,2.08
2022-09-11T10:46:05.894Z,2.65
2022-09-11T10:48:44.208Z,2.53
2022-09-11T10:51:16.594Z,2.10
2022-09-11T10:53:58.126Z,2.05
2022-09-11T10:59:24.296Z,2.53
2022-09-11T11:02:12.549Z,2.22
2022-09-11T11:04:47.038Z,2.40
2022-09-11T11:07:45.240Z,2.42
2022-09-11T11:10:53.917Z,2.65
2022-09-11T11:13:54.991Z,2.28
2022-09-11T11:16:45.443Z,2.40
2022-09-11T11:19:39.948Z,3.00
2022-09-11T11:22:27.387Z,2.70
2022-09-11T11:25:07.360Z,3.28
2022-09-11T11:27:54.940Z,3.30
2022-09-11T11:30:27.556Z,3.60
2022-09-11T11:33:05.056Z,3.33
2022-09-11T11:35:35.063Z,3.13
2022-09-11T11:38:12.768Z,3.20
2022-09-11T11:40:51.341Z,3.17
2022-09-11T11:43:32.576Z,3.03
2022-09-11T11:46:06.930Z,3.38
2022-09-11T11:49:04.058Z,4.03
2022-09-11T11:51:34.970Z,2.90
2022-09-11T11:54:25.024Z,2.88
2022-09-11T11:57:12.155Z,2.70
2022-09-11T11:59:55.380Z,3.13
2022-09-11T12:02:32.323Z,3.03
2022-09-11T12:05:06.949Z,3.05
2022-09-11T12:07:40.047Z,2.88
2022-09-11T12:10:32.658Z,2.80
2022-09-11T12:13:19.330Z,2.70
2022-09-11T12:16:08.321Z,2.55
2022-09-11T12:21:57.592Z,2.90
2022-09-11T12:24:45.854Z,2.17
2022-09-11T12:30:28.023Z,2.47
2022-09-11T12:32:57.177Z,2.40
2022-09-11T12:35:33.055Z,2.05
2022-09-11T12:38:20.120Z,2.10
2022-09-11T12:40:56.556Z,2.10
2022-09-11T12:43:55.792Z,2.05
2022-09-11T12:46:29.193Z,1.98
2022-09-11T12:49:21.031Z,2.00
2022-09-11T12:52:04.057Z,1.85
2022-09-11T12:54:41.568Z,2.00
2022-09-11T12:57:30.466Z,1.35
2022-09-11T13:00:06.526Z,1.60
2022-09-11T13:02:51.970Z,1.42
2022-09-11T13:05:51.681Z,1.40
2022-09-11T13:08:46.656Z,1.80
2022-09-11T13:11:52.992Z,1.50
2022-09-11T13:14:49.894Z,1.40
2022-09-11T13:17:51.572Z,1.10
2022-09-11T13:23:21.532Z,1.20
2022-09-11T13:26:15.501Z,1.30
2022-09-11T13:28:46.684Z,1.10
2022-09-11T13:31:44.586Z,1.20
2022-09-11T13:34:29.951Z,1.35
2022-09-11T13:37:21.237Z,1.00
2022-09-11T13:39:59.349Z,1.52
2022-09-11T13:42:43.515Z,1.20
2022-09-11T13:45:26.734Z,1.30
2022-09-11T13:47:55.990Z,1.27
2022-09-11T13:50:32.720Z,1.60
2022-09-11T13:53:01.770Z,1.70
2022-09-11T13:55:47.971Z,1.77
2022-09-11T13:58:26.532Z,2.05
2022-09-11T14:01:16.581Z,1.40
2022-09-11T14:03:46.812Z,2.13
2022-09-11T14:06:22.028Z,2.00
2022-09-11T14:08:57.351Z,2.78
2022-09-11T14:11:42.402Z,2.80
2022-09-11T14:14:15.244Z,2.70
2022-09-11T14:16:49.619Z,2.20
2022-09-11T14:19:36.052Z,2.40
2022-09-11T14:22:18.463Z,2.53
2022-09-11T14:25:11.805Z,2.47
2022-09-11T14:27:43.032Z,2.55
2022-09-11T14:30:34.811Z,2.13
2022-09-11T14:33:24.555Z,2.00
2022-09-11T14:35:59.116Z,1.83
2022-09-11T14:39:06.323Z,2.10
2022-09-11T14:41:43.332Z,1.90
2022-09-11T14:44:35.529Z,2.60
2022-09-11T14:47:21.252Z,1.70
2022-09-11T14:49:56.995Z,1.77
2022-09-11T14:52:30.567Z,2.17
2022-09-11T14:55:08.638Z,2.20
2022-09-11T14:57:36.652Z,2.40
2022-09-11T15:00:04.515Z,2.17
2022-09-11T15:02:48.314Z,2.30
2022-09-11T15:05:24.295Z,2.38
2022-09-11T15:07:54.238Z,2.90
2022-09-11T15:10:34.320Z,2.85
2022-09-11T15:13:04.405Z,3.60
2022-09-11T15:15:32.839Z,3.15
2022-09-11T15:18:06.511Z,3.63
2022-09-11T15:20:37.174Z,3.65
2022-09-11T15:23:11.040Z,3.53
2022-09-11T15:25:48.211Z,3.50
2022-09-11T15:28:26.265Z,2.58
2022-09-11T15:31:01.145Z,2.90
2022-09-11T15:33:40.138Z,3.10
2022-09-11T15:36:17.268Z,2.95
2022-09-11T15:39:02.432Z,2.40
2022-09-11T15:41:48.329Z,2.90
2022-09-11T15:44:30.055Z,3.30
2022-09-11T15:47:00.973Z,3.45
2022-09-11T15:49:32.567Z,3.50
2022-09-11T15:52:11.451Z,3.40
2022-09-11T15:54:41.999Z,3.20
2022-09-11T15:57:13.761Z,3.43
2022-09-11T16:00:03.727Z,3.13
2022-09-11T16:02:44.905Z,3.03
2022-09-11T16:05:15.773Z,3.72
2022-09-11T16:07:45.776Z,4.10
2022-09-11T16:10:29.139Z,4.38
2022-09-11T16:12:59.003Z,3.47
2022-09-11T16:15:28.233Z,3.75
2022-09-11T16:18:00.388Z,4.03
2022-09-11T16:20:36.922Z,3.85
2022-09-11T16:23:06.006Z,4.00
2022-09-11T16:25:39.018Z,3.78
2022-09-11T16:28:09.894Z,3.80
2022-09-11T16:30:45.869Z,4.05
2022-09-11T16:33:17.668Z,3.60
2022-09-11T16:36:09.153Z,3.95
2022-09-11T16:38:40.753Z,4.05
2022-09-11T16:43:47.798Z,4.18
2022-09-11T16:46:19.473Z,3.50
2022-09-11T16:48:54.924Z,3.78
2022-09-11T16:51:25.626Z,3.55
2022-09-11T16:53:53.833Z,3.67
2022-09-11T16:56:32.564Z,3.65
2022-09-11T16:59:08.699Z,3.58
2022-09-11T17:01:42.758Z,3.63
2022-09-11T17:04:11.924Z,4.72
2022-09-11T17:06:41.730Z,4.40
2022-09-11T17:09:09.828Z,4.00
2022-09-11T17:12:05.143Z,3.72
2022-09-11T17:14:59.777Z,4.18
2022-09-11T17:17:30.196Z,4.13
2022-09-11T17:20:17.334Z,5.70
2022-09-11T17:22:58.047Z,6.75
2022-09-11T17:25:40.855Z,5.60
2022-09-11T17:28:10.778Z,5.72
2022-09-11T17:30:42.055Z,5.03
2022-09-11T17:33:11.087Z,5.43
2022-09-11T17:35:46.402Z,5.68
2022-09-11T17:38:21.217Z,5.15
2022-09-11T17:41:01.360Z,4.63
2022-09-11T17:43:29.786Z,4.85
2022-09-11T17:46:08.927Z,4.90
2022-09-11T17:48:39.000Z,5.20
2022-09-11T17:51:12.400Z,4.40
2022-09-11T17:53:40.855Z,5.13
2022-09-11T17:56:12.490Z,4.80
2022-09-11T17:58:42.471Z,4.38
2022-09-11T18:01:17.164Z,4.25
2022-09-11T18:03:58.922Z,3.95
2022-09-11T18:06:31.251Z,4.40
2022-09-11T18:09:03.305Z,3.13
2022-09-11T18:11:40.119Z,3.45
2022-09-11T18:14:08.516Z,3.55
2022-09-11T18:16:46.800Z,3.30
2022-09-11T18:19:17.958Z,4.20
2022-09-11T18:21:53.697Z,3.80
2022-09-11T18:24:40.169Z,4.05
2022-09-11T18:27:25.398Z,4.40
2022-09-11T18:30:07.630Z,4.70
2022-09-11T18:32:42.786Z,4.20
2022-09-11T18:35:13.096Z,4.35
2022-09-11T18:37:44.108Z,4.47
2022-09-11T18:40:12.033Z,4.90
2022-09-11T18:42:44.763Z,4.47
2022-09-11T18:45:24.984Z,5.13
2022-09-11T18:48:09.462Z,5.40
2022-09-11T18:50:37.366Z,4.80
2022-09-11T18:53:08.917Z,4.70
2022-09-11T18:55:40.392Z,5.45
2022-09-11T19:00:42.390Z,6.18
2022-09-11T19:03:13.367Z,4.30
2022-09-11T19:06:05.121Z,4.20
2022-09-11T19:08:35.075Z,5.47
2022-09-11T19:11:15.603Z,4.70
2022-09-11T19:13:46.441Z,4.90
2022-09-11T19:16:16.057Z,4.43
2022-09-11T19:18:46.569Z,3.90
2022-09-11T19:21:27.450Z,4.43
2022-09-11T19:24:00.351Z,4.30
2022-09-11T19:26:40.186Z,4.88
2022-09-11T19:29:10.814Z,4.35
2022-09-11T19:32:22.099Z,4.70
2022-09-11T19:34:52.678Z,4.72
2022-09-11T19:37:33.030Z,4.45
2022-09-11T19:40:02.257Z,4.68
2022-09-11T19:43:06.296Z,4.68
2022-09-11T19:45:54.590Z,4.20
2022-09-11T19:48:27.682Z,4.25
2022-09-11T19:51:02.299Z,3.75
2022-09-11T19:53:31.297Z,4.07
2022-09-11T19:56:06.393Z,3.72
2022-09-11T19:58:36.798Z,3.45
2022-09-11T20:01:08.379Z,3.25
2022-09-11T20:03:49.447Z,3.45
2022-09-11T20:06:19.890Z,2.70
2022-09-11T20:09:13.787Z,3.00
2022-09-11T20:12:00.748Z,3.00
2022-09-11T20:14:42.304Z,2.13
2022-09-11T20:17:24.540Z,2.60
2022-09-11T20:19:54.508Z,2.47
2022-09-11T20:22:26.074Z,2.50
2022-09-11T20:24:54.344Z,2.00
2022-09-11T20:27:22.208Z,2.00
2022-09-11T20:30:08.848Z,1.88
2022-09-11T20:32:43.103Z,1.95
2022-09-11T20:35:19.118Z,1.90
2022-09-11T20:38:26.182Z,1.92
2022-09-11T20:40:56.342Z,2.10
2022-09-11T20:43:24.274Z,1.70
2022-09-11T20:45:52.264Z,1.65
2022-09-11T20:48:24.040Z,1.60
2022-09-11T20:50:53.430Z,1.85
2022-09-11T20:53:24.225Z,1.77
2022-09-11T20:55:51.948Z,1.63
2022-09-11T20:58:23.718Z,1.90
2022-09-11T21:01:16.461Z,1.80
2022-09-11T21:04:02.740Z,1.60
2022-09-11T21:06:32.179Z,1.80
2022-09-11T21:09:07.092Z,1.58
2022-09-11T21:11:37.305Z,1.75
2022-09-11T21:14:35.259Z,1.70
2022-09-11T21:17:11.364Z,1.80
2022-09-11T21:19:44.088Z,2.15
2022-09-11T21:22:29.403Z,2.03
2022-09-11T21:24:57.374Z,1.63
2022-09-11T21:27:51.190Z,1.60
2022-09-11T21:30:28.346Z,1.42
2022-09-11T21:36:09.349Z,1.50
2022-09-11T21:38:55.617Z,2.25
2022-09-11T21:41:24.552Z,1.30
2022-09-11T21:44:03.667Z,1.83
2022-09-11T21:46:37.911Z,1.52
2022-09-11T21:49:10.922Z,1.70
2022-09-11T21:51:38.658Z,1.60
2022-09-11T21:54:06.738Z,1.30
2022-09-11T21:56:59.412Z,1.60
2022-09-11T21:59:35.301Z,1.30
2022-09-11T22:02:05.552Z,1.80
2022-09-11T22:04:46.282Z,1.40
2022-09-11T22:07:18.782Z,1.52
2022-09-11T22:09:48.606Z,2.05
2022-09-11T22:12:26.933Z,2.10
2022-09-11T22:14:56.133Z,1.90
2022-09-11T22:17:51.855Z,1.88
2022-09-11T22:20:22.273Z,2.05
2022-09-11T22:23:02.601Z,2.30
2022-09-11T22:25:53.044Z,2.00
2022-09-11T22:28:31.910Z,2.47
2022-09-11T22:31:00.167Z,2.45
2022-09-11T22:33:34.193Z,2.70
2022-09-11T22:36:24.789Z,2.42
2022-09-11T22:38:52.932Z,2.28
2022-09-11T22:41:20.776Z,2.85
2022-09-11T22:44:17.684Z,2.45
2022-09-11T22:46:58.893Z,2.95
2022-09-11T22:49:26.988Z,2.92
2022-09-11T22:52:04.073Z,2.83
2022-09-11T22:54:45.430Z,2.72
2022-09-11T22:57:17.614Z,3.40
2022-09-11T22:59:51.482Z,2.88
2022-09-11T23:02:28.729Z,3.25
2022-09-11T23:08:09.093Z,3.05
2022-09-11T23:10:47.216Z,2.97
2022-09-11T23:13:38.912Z,3.17
2022-09-11T23:18:48.332Z,3.10
2022-09-11T23:21:29.349Z,3.03
2022-09-11T23:24:02.622Z,3.47
2022-09-11T23:26:37.801Z,3.15
2022-09-11T23:29:18.474Z,3.30
2022-09-11T23:31:53.811Z,3.03
2022-09-11T23:34:23.788Z,2.80
2022-09-11T23:37:00.838Z,2.58
2022-09-11T23:39:28.706Z,2.88
2022-09-11T23:42:05.046Z,2.78
2022-09-11T23:44:35.967Z,2.83
2022-09-11T23:47:06.792Z,3.08
2022-09-11T23:49:43.719Z,3.50
2022-09-11T23:52:43.567Z,3.83
2022-09-11T23:55:13.725Z,4.00
2022-09-11T23:57:57.090Z,4.30
